createdAt,value
2022-10-07T00:00:54.931Z,1.70
2022-10-07T00:03:23.067Z,1.80
2022-10-07T00:06:10.660Z,2.35
2022-10-07T00:08:39.008Z,2.17
2022-10-07T00:11:09.228Z,1.95
2022-10-07T00:13:38.620Z,2.25
2022-10-07T00:16:07.597Z,2.22
2022-10-07T00:18:35.668Z,2.30
2022-10-07T00:21:03.998Z,2.50
2022-10-07T00:23:30.411Z,1.60
2022-10-07T00:26:01.156Z,2.25
2022-10-07T00:28:27.575Z,1.63
2022-10-07T00:31:01.950Z,2.13
2022-10-07T00:33:33.976Z,2.10
2022-10-07T00:36:00.469Z,1.80
2022-10-07T00:38:27.390Z,2.00
2022-10-07T00:40:53.753Z,2.08
2022-10-07T00:43:26.175Z,1.83
2022-10-07T00:45:58.995Z,1.75
2022-10-07T00:48:29.106Z,1.77
2022-10-07T00:50:57.358Z,2.60
2022-10-07T00:53:26.915Z,1.90
2022-10-07T00:55:57.114Z,1.70
2022-10-07T00:58:24.696Z,2.10
2022-10-07T01:00:51.086Z,2.20
2022-10-07T01:03:17.483Z,1.75
2022-10-07T01:05:46.874Z,2.42
2022-10-07T01:08:15.544Z,2.38
2022-10-07T01:10:48.306Z,2.40
2022-10-07T01:13:25.078Z,2.55
2022-10-07T01:16:02.315Z,2.08
2022-10-07T01:18:45.809Z,2.47
2022-10-07T01:21:18.324Z,2.50
2022-10-07T01:23:54.067Z,2.50
2022-10-07T01:26:43.399Z,2.30
2022-10-07T01:29:26.424Z,3.95
2022-10-07T01:32:17.293Z,2.40
2022-10-07T01:34:46.390Z,2.83
2022-10-07T01:37:16.345Z,2.30
2022-10-07T01:39:49.828Z,2.22
2022-10-07T01:42:17.010Z,2.72
2022-10-07T01:44:47.261Z,2.25
2022-10-07T01:47:13.670Z,3.28
2022-10-07T01:49:39.972Z,3.20
2022-10-07T01:52:43.613Z,3.00
2022-10-07T01:55:28.404Z,2.35
2022-10-07T01:58:12.275Z,2.42
2022-10-07T02:00:47.135Z,3.35
2022-10-07T02:03:33.733Z,2.97
2022-10-07T02:06:35.048Z,3.13
2022-10-07T02:09:04.583Z,3.28
2022-10-07T02:11:37.582Z,3.10
2022-10-07T02:14:14.276Z,2.72
2022-10-07T02:16:46.981Z,2.90
2022-10-07T02:19:18.701Z,2.72
2022-10-07T02:21:49.027Z,2.92
2022-10-07T02:24:17.718Z,2.73
2022-10-07T02:26:47.170Z,3.08
2022-10-07T02:29:17.228Z,2.85
2022-10-07T02:31:48.309Z,2.95
2022-10-07T02:34:20.089Z,2.42
2022-10-07T02:36:54.592Z,2.90
2022-10-07T02:39:21.503Z,3.08
2022-10-07T02:42:00.208Z,2.78
2022-10-07T02:44:49.252Z,2.95
2022-10-07T02:47:40.585Z,2.75
2022-10-07T02:50:11.135Z,2.83
2022-10-07T02:52:40.377Z,3.05
2022-10-07T02:55:09.725Z,2.65
2022-10-07T02:57:42.322Z,3.15
2022-10-07T03:00:11.412Z,2.55
2022-10-07T03:02:46.994Z,2.83
2022-10-07T03:05:19.871Z,2.75
2022-10-07T03:07:48.593Z,3.00
2022-10-07T03:10:16.140Z,2.92
2022-10-07T03:12:42.563Z,2.60
2022-10-07T03:15:10.978Z,2.60
2022-10-07T03:17:38.863Z,3.15
2022-10-07T03:20:06.770Z,3.03
2022-10-07T03:22:33.204Z,2.83
2022-10-07T03:24:59.512Z,2.70
2022-10-07T03:27:25.943Z,3.28
2022-10-07T03:29:54.134Z,2.97
2022-10-07T03:32:20.425Z,3.08
2022-10-07T03:34:46.748Z,2.53
2022-10-07T03:37:13.052Z,3.10
2022-10-07T03:39:39.452Z,3.60
2022-10-07T03:42:06.315Z,3.33
2022-10-07T03:44:32.777Z,3.28
2022-10-07T03:46:59.119Z,2.83
2022-10-07T03:49:25.695Z,3.17
2022-10-07T03:51:52.028Z,2.83
2022-10-07T03:54:18.751Z,3.03
2022-10-07T03:56:45.149Z,2.92
2022-10-07T03:59:11.752Z,4.93
2022-10-07T04:01:39.739Z,3.10
2022-10-07T04:04:07.594Z,2.83
2022-10-07T04:06:34.762Z,3.75
2022-10-07T04:09:01.294Z,3.22
2022-10-07T04:11:27.684Z,2.90
2022-10-07T04:13:55.530Z,2.83
2022-10-07T04:16:22.874Z,2.88
2022-10-07T04:18:49.254Z,3.38
2022-10-07T04:21:15.639Z,3.05
2022-10-07T04:23:42.417Z,3.15
2022-10-07T04:26:12.748Z,2.70
2022-10-07T04:28:39.601Z,3.30
2022-10-07T04:31:08.791Z,3.00
2022-10-07T04:33:39.327Z,2.70
2022-10-07T04:36:07.634Z,3.13
2022-10-07T04:38:34.175Z,2.75
2022-10-07T04:41:04.846Z,3.05
2022-10-07T04:43:33.861Z,3.50
2022-10-07T04:46:09.281Z,4.03
2022-10-07T04:48:35.795Z,3.05
2022-10-07T04:51:04.112Z,3.08
2022-10-07T04:53:31.715Z,2.90
2022-10-07T04:55:58.637Z,2.35
2022-10-07T04:58:25.265Z,3.05
2022-10-07T05:00:53.502Z,3.40
2022-10-07T05:03:22.390Z,2.90
2022-10-07T05:05:54.717Z,3.30
2022-10-07T05:08:24.556Z,2.90
2022-10-07T05:10:58.581Z,2.83
2022-10-07T05:13:26.389Z,3.22
2022-10-07T05:15:55.341Z,3.33
2022-10-07T05:18:23.814Z,3.50
2022-10-07T05:20:50.864Z,3.47
2022-10-07T05:23:21.407Z,3.10
2022-10-07T05:26:01.967Z,2.85
2022-10-07T05:28:28.501Z,2.63
2022-10-07T05:31:06.827Z,3.30
2022-10-07T05:33:33.834Z,3.10
2022-10-07T05:36:00.558Z,3.10
2022-10-07T05:38:28.602Z,3.97
2022-10-07T05:40:59.541Z,3.38
2022-10-07T05:43:31.361Z,5.32
2022-10-07T05:46:12.117Z,3.65
2022-10-07T05:48:40.000Z,3.38
2022-10-07T05:51:10.235Z,3.30
2022-10-07T05:53:36.915Z,3.08
2022-10-07T05:56:07.017Z,2.83
2022-10-07T05:58:35.751Z,3.30
2022-10-07T06:01:06.792Z,3.17
2022-10-07T06:03:35.191Z,3.45
2022-10-07T06:06:01.493Z,3.17
2022-10-07T06:08:27.835Z,3.90
2022-10-07T06:11:12.788Z,3.22
2022-10-07T06:13:39.150Z,3.42
2022-10-07T06:16:08.010Z,3.40
2022-10-07T06:18:37.697Z,3.22
2022-10-07T06:21:04.225Z,3.00
2022-10-07T06:23:31.870Z,3.05
2022-10-07T06:26:01.169Z,3.72
2022-10-07T06:28:32.552Z,3.00
2022-10-07T06:30:59.014Z,2.65
2022-10-07T06:33:25.415Z,3.17
2022-10-07T06:35:59.793Z,2.58
2022-10-07T06:38:28.657Z,5.03
2022-10-07T06:40:59.567Z,2.55
2022-10-07T06:43:26.606Z,3.08
2022-10-07T06:46:02.059Z,2.70
2022-10-07T06:48:30.756Z,2.90
2022-10-07T06:51:02.988Z,2.78
2022-10-07T06:53:30.245Z,2.60
2022-10-07T06:55:59.476Z,2.95
2022-10-07T06:58:26.068Z,3.22
2022-10-07T07:00:53.865Z,2.70
2022-10-07T07:03:20.956Z,2.72
2022-10-07T07:05:49.726Z,2.88
2022-10-07T07:08:22.146Z,3.00
2022-10-07T07:10:49.166Z,2.25
2022-10-07T07:13:15.685Z,3.00
2022-10-07T07:15:42.276Z,2.45
2022-10-07T07:18:09.957Z,2.90
2022-10-07T07:20:37.803Z,2.50
2022-10-07T07:23:06.962Z,2.63
2022-10-07T07:25:40.907Z,3.58
2022-10-07T07:28:08.082Z,2.50
2022-10-07T07:30:35.591Z,3.20
2022-10-07T07:33:02.000Z,3.38
2022-10-07T07:35:32.687Z,3.08
2022-10-07T07:38:00.034Z,2.50
2022-10-07T07:40:26.789Z,2.30
2022-10-07T07:42:55.612Z,3.08
2022-10-07T07:45:22.718Z,2.92
2022-10-07T07:47:49.579Z,2.42
2022-10-07T07:50:18.442Z,2.67
2022-10-07T07:52:44.913Z,2.60
2022-10-07T07:55:11.620Z,1.90
2022-10-07T07:57:38.002Z,2.60
2022-10-07T08:00:05.214Z,2.58
2022-10-07T08:02:31.614Z,2.78
2022-10-07T08:04:58.042Z,2.53
2022-10-07T08:07:24.686Z,1.90
2022-10-07T08:09:51.096Z,2.42
2022-10-07T08:12:17.502Z,2.00
2022-10-07T08:14:43.830Z,2.78
2022-10-07T08:17:10.270Z,1.77
2022-10-07T08:19:36.739Z,1.83
2022-10-07T08:22:03.990Z,2.05
2022-10-07T08:24:30.641Z,2.50
2022-10-07T08:26:57.775Z,2.80
2022-10-07T08:29:24.529Z,1.70
2022-10-07T08:31:51.004Z,1.73
2022-10-07T08:34:22.173Z,2.55
2022-10-07T08:36:52.130Z,1.85
2022-10-07T08:39:18.474Z,1.67
2022-10-07T08:42:02.780Z,2.22
2022-10-07T08:44:40.791Z,2.03
2022-10-07T08:47:20.216Z,1.23
2022-10-07T08:49:54.321Z,1.63
2022-10-07T08:52:30.219Z,2.22
2022-10-07T08:54:56.610Z,2.83
2022-10-07T08:58:05.463Z,1.85
2022-10-07T09:00:50.552Z,2.63
2022-10-07T09:03:26.100Z,1.67
2022-10-07T09:05:54.342Z,2.10
2022-10-07T09:08:28.627Z,2.00
2022-10-07T09:11:00.880Z,2.28
2022-10-07T09:13:37.012Z,1.75
2022-10-07T09:16:08.787Z,1.45
2022-10-07T09:18:40.228Z,1.75
2022-10-07T09:21:19.871Z,1.10
2022-10-07T09:23:47.017Z,1.73
2022-10-07T09:26:15.190Z,1.55
2022-10-07T09:28:41.657Z,2.05
2022-10-07T09:31:08.188Z,1.63
2022-10-07T09:33:43.215Z,1.63
2022-10-07T09:36:12.588Z,1.80
2022-10-07T09:38:44.695Z,1.35
2022-10-07T09:41:16.870Z,1.58
2022-10-07T09:43:55.688Z,1.30
2022-10-07T09:46:41.157Z,1.67
2022-10-07T09:49:28.678Z,1.75
2022-10-07T09:52:03.744Z,2.70
2022-10-07T09:54:32.885Z,1.70
2022-10-07T09:57:03.367Z,2.58
2022-10-07T09:59:32.622Z,2.20
2022-10-07T10:02:20.978Z,1.20
2022-10-07T10:04:53.596Z,1.70
2022-10-07T10:07:34.109Z,1.45
2022-10-07T10:10:04.884Z,1.50
2022-10-07T10:12:46.537Z,1.30
2022-10-07T10:15:43.582Z,1.17
2022-10-07T10:18:27.531Z,1.70
2022-10-07T10:20:54.278Z,1.85
2022-10-07T10:23:35.561Z,1.05
2022-10-07T10:29:08.998Z,1.42
2022-10-07T10:31:57.070Z,1.08
2022-10-07T10:34:45.716Z,1.10
2022-10-07T10:37:26.280Z,1.38
2022-10-07T10:40:11.311Z,1.07
2022-10-07T10:42:50.480Z,1.20
2022-10-07T10:45:37.444Z,0.70
2022-10-07T10:48:11.113Z,1.00
2022-10-07T10:50:53.579Z,1.25
2022-10-07T10:53:42.545Z,1.13
2022-10-07T10:56:41.550Z,1.10
2022-10-07T10:59:28.288Z,0.88
2022-10-07T11:02:31.219Z,1.88
2022-10-07T11:05:25.297Z,1.70
2022-10-07T11:08:06.370Z,0.73
2022-10-07T11:10:46.540Z,1.30
2022-10-07T11:13:12.786Z,1.30
2022-10-07T11:15:44.331Z,0.90
2022-10-07T11:18:21.938Z,1.05
2022-10-07T11:20:50.168Z,1.30
2022-10-07T11:23:39.981Z,0.85
2022-10-07T11:26:17.470Z,0.80
2022-10-07T11:28:44.739Z,1.10
2022-10-07T11:31:35.832Z,1.35
2022-10-07T11:34:28.293Z,2.13
2022-10-07T11:37:08.816Z,0.80
2022-10-07T11:39:39.318Z,1.07
2022-10-07T11:42:20.147Z,1.35
2022-10-07T11:45:02.555Z,0.98
2022-10-07T11:47:50.262Z,0.75
2022-10-07T11:50:20.585Z,1.08
2022-10-07T11:52:50.894Z,1.10
2022-10-07T11:55:29.060Z,1.03
2022-10-07T11:57:58.831Z,0.90
2022-10-07T12:00:34.272Z,0.82
2022-10-07T12:03:27.308Z,0.98
2022-10-07T12:05:57.551Z,1.17
2022-10-07T12:08:36.704Z,1.25
2022-10-07T12:11:15.480Z,0.77
2022-10-07T12:13:45.037Z,1.17
2022-10-07T12:16:42.170Z,1.33
2022-10-07T12:19:10.342Z,0.90
2022-10-07T12:22:04.741Z,0.77
2022-10-07T12:24:33.154Z,1.40
2022-10-07T12:27:28.940Z,1.60
2022-10-07T12:30:02.165Z,1.00
2022-10-07T12:32:56.098Z,1.05
2022-10-07T12:35:43.409Z,1.15
2022-10-07T12:38:16.643Z,1.23
2022-10-07T12:40:48.640Z,1.65
2022-10-07T12:43:45.915Z,1.00
2022-10-07T12:46:16.092Z,1.20
2022-10-07T12:48:56.190Z,0.98
2022-10-07T12:51:28.590Z,1.17
2022-10-07T12:53:58.940Z,0.85
2022-10-07T12:56:30.051Z,1.03
2022-10-07T13:02:34.036Z,0.73
2022-10-07T13:05:19.110Z,1.00
2022-10-07T13:08:14.666Z,0.88
2022-10-07T13:11:16.034Z,1.08
2022-10-07T13:13:50.913Z,0.75
2022-10-07T13:16:34.003Z,0.77
2022-10-07T13:19:23.974Z,1.30
2022-10-07T13:22:02.418Z,1.20
2022-10-07T13:24:29.023Z,0.95
2022-10-07T13:26:56.755Z,1.20
2022-10-07T13:29:30.282Z,1.58
2022-10-07T13:32:11.800Z,1.80
2022-10-07T13:34:38.368Z,1.13
2022-10-07T13:37:23.583Z,0.80
2022-10-07T13:39:50.013Z,1.48
2022-10-07T13:42:21.132Z,0.95
2022-10-07T13:44:47.793Z,1.30
2022-10-07T13:47:20.052Z,1.00
2022-10-07T13:49:49.530Z,0.93
2022-10-07T13:52:35.043Z,1.30
2022-10-07T13:55:01.644Z,1.05
2022-10-07T13:57:31.125Z,2.20
2022-10-07T13:59:59.802Z,1.25
2022-10-07T14:02:26.419Z,1.17
2022-10-07T14:05:17.612Z,1.30
2022-10-07T14:07:44.196Z,1.40
2022-10-07T14:10:12.526Z,1.30
2022-10-07T14:12:44.782Z,0.93
2022-10-07T14:15:23.429Z,1.05
2022-10-07T14:17:56.905Z,1.35
2022-10-07T14:20:49.352Z,1.50
2022-10-07T14:23:22.326Z,0.90
2022-10-07T14:25:59.598Z,1.10
2022-10-07T14:28:27.772Z,1.10
2022-10-07T14:31:25.477Z,1.42
2022-10-07T14:34:33.184Z,0.80
2022-10-07T14:37:19.723Z,1.08
2022-10-07T14:39:48.597Z,1.23
2022-10-07T14:42:22.519Z,1.40
2022-10-07T14:44:49.352Z,1.05
2022-10-07T14:47:21.593Z,1.15
2022-10-07T14:49:48.881Z,1.23
2022-10-07T14:52:46.052Z,1.40
2022-10-07T14:55:12.589Z,0.90
2022-10-07T14:57:38.938Z,1.30
2022-10-07T15:00:14.020Z,1.73
2022-10-07T15:02:40.340Z,1.30
2022-10-07T15:05:07.768Z,1.30
2022-10-07T15:07:34.182Z,1.17
2022-10-07T15:10:00.480Z,0.93
2022-10-07T15:12:27.816Z,1.25
2022-10-07T15:14:55.009Z,1.00
2022-10-07T15:17:21.324Z,1.20
2022-10-07T15:19:47.635Z,1.20
2022-10-07T15:22:16.210Z,1.02
2022-10-07T15:24:42.547Z,1.42
2022-10-07T15:27:09.764Z,2.30
2022-10-07T15:29:36.485Z,1.90
2022-10-07T15:32:03.089Z,1.15
2022-10-07T15:34:30.990Z,1.10
2022-10-07T15:36:58.354Z,0.88
2022-10-07T15:39:26.270Z,1.17
2022-10-07T15:41:53.283Z,0.70
2022-10-07T15:44:22.067Z,1.10
2022-10-07T15:46:52.419Z,1.55
2022-10-07T15:49:18.933Z,0.88
2022-10-07T15:51:48.336Z,1.15
2022-10-07T15:54:14.903Z,0.70
2022-10-07T15:56:42.763Z,1.25
2022-10-07T15:59:09.893Z,0.80
2022-10-07T16:01:36.740Z,1.00
2022-10-07T16:04:04.014Z,1.23
2022-10-07T16:06:35.655Z,1.92
2022-10-07T16:09:02.635Z,1.30
2022-10-07T16:11:31.056Z,1.23
2022-10-07T16:13:59.377Z,1.02
2022-10-07T16:16:27.481Z,1.40
2022-10-07T16:18:57.083Z,1.10
2022-10-07T16:21:27.856Z,1.35
2022-10-07T16:24:00.781Z,1.00
2022-10-07T16:26:30.001Z,1.27
2022-10-07T16:29:17.785Z,1.55
2022-10-07T16:31:45.849Z,1.05
2022-10-07T16:34:14.261Z,1.23
2022-10-07T16:36:45.364Z,1.00
2022-10-07T16:39:12.462Z,1.38
2022-10-07T16:41:41.695Z,1.25
2022-10-07T16:44:28.112Z,1.10
2022-10-07T16:46:57.325Z,0.98
2022-10-07T16:49:25.994Z,1.27
2022-10-07T16:51:52.973Z,1.23
2022-10-07T16:54:19.515Z,1.13
2022-10-07T16:56:49.037Z,1.20
2022-10-07T16:59:25.479Z,1.50
2022-10-07T17:01:55.187Z,1.52
2022-10-07T17:04:22.311Z,1.08
2022-10-07T17:06:49.083Z,1.48
2022-10-07T17:09:15.703Z,1.10
2022-10-07T17:11:42.179Z,4.85
2022-10-07T17:14:16.223Z,2.78
2022-10-07T17:16:45.484Z,2.03
2022-10-07T17:19:17.345Z,2.22
2022-10-07T17:21:46.205Z,1.80
2022-10-07T17:24:13.070Z,1.85
2022-10-07T17:26:39.969Z,1.52
2022-10-07T17:29:09.745Z,1.58
2022-10-07T17:31:39.215Z,1.90
2022-10-07T17:34:06.718Z,1.60
2022-10-07T17:36:35.115Z,1.55
2022-10-07T17:39:01.567Z,1.50
2022-10-07T17:41:30.351Z,1.88
2022-10-07T17:43:59.150Z,1.30
2022-10-07T17:46:28.098Z,1.38
2022-10-07T17:48:56.696Z,1.73
2022-10-07T17:51:27.722Z,1.95
2022-10-07T17:53:56.248Z,1.38
2022-10-07T17:56:23.244Z,2.30
2022-10-07T17:58:50.612Z,1.88
2022-10-07T18:01:25.440Z,1.67
2022-10-07T18:03:57.782Z,1.17
2022-10-07T18:06:30.943Z,1.50
2022-10-07T18:09:04.233Z,1.33
2022-10-07T18:11:50.372Z,1.35
2022-10-07T18:14:36.274Z,2.03
2022-10-07T18:17:03.751Z,1.02
2022-10-07T18:19:30.463Z,1.20
2022-10-07T18:21:57.547Z,1.45
2022-10-07T18:24:28.883Z,1.45
2022-10-07T18:26:59.379Z,1.30
2022-10-07T18:29:32.009Z,1.35
2022-10-07T18:31:59.200Z,1.17
2022-10-07T18:34:26.381Z,1.30
2022-10-07T18:36:56.659Z,1.60
2022-10-07T18:39:27.509Z,1.15
2022-10-07T18:41:54.898Z,1.00
2022-10-07T18:44:23.393Z,1.02
2022-10-07T18:46:50.141Z,1.42
2022-10-07T18:49:16.819Z,1.00
2022-10-07T18:51:45.737Z,1.45
2022-10-07T18:54:14.506Z,1.77
2022-10-07T18:56:41.708Z,1.00
2022-10-07T18:59:10.120Z,1.17
2022-10-07T19:01:37.743Z,1.42
2022-10-07T19:04:06.264Z,1.70
2022-10-07T19:06:36.006Z,1.05
2022-10-07T19:09:06.876Z,1.90
2022-10-07T19:11:34.238Z,1.33
2022-10-07T19:14:01.165Z,1.20
2022-10-07T19:16:42.828Z,1.48
2022-10-07T19:19:17.536Z,1.27
2022-10-07T19:21:46.346Z,1.50
2022-10-07T19:24:15.257Z,1.05
2022-10-07T19:26:44.357Z,1.35
2022-10-07T19:29:13.630Z,1.40
2022-10-07T19:31:45.642Z,1.45
2022-10-07T19:34:15.051Z,1.55
2022-10-07T19:36:46.833Z,1.42
2022-10-07T19:39:23.356Z,1.30
2022-10-07T19:41:51.214Z,1.70
2022-10-07T19:44:18.280Z,1.70
2022-10-07T19:46:44.942Z,1.52
2022-10-07T19:49:12.013Z,1.63
2022-10-07T19:51:40.767Z,1.73
2022-10-07T19:54:10.061Z,2.28
2022-10-07T19:56:37.530Z,1.40
2022-10-07T19:59:12.849Z,1.75
2022-10-07T20:01:48.962Z,1.67
2022-10-07T20:04:21.606Z,1.30
2022-10-07T20:06:48.511Z,1.80
2022-10-07T20:09:17.939Z,2.10
2022-10-07T20:11:44.528Z,1.73
2022-10-07T20:14:10.992Z,1.52
2022-10-07T20:16:38.906Z,1.73
2022-10-07T20:19:08.361Z,1.67
2022-10-07T20:21:36.714Z,1.58
2022-10-07T20:24:05.353Z,1.90
2022-10-07T20:26:34.887Z,1.58
2022-10-07T20:29:03.561Z,1.48
2022-10-07T20:31:33.316Z,1.55
2022-10-07T20:34:01.452Z,1.35
2022-10-07T20:36:31.075Z,1.35
2022-10-07T20:39:18.228Z,1.98
2022-10-07T20:42:03.434Z,1.40
2022-10-07T20:44:30.124Z,1.70
2022-10-07T20:46:57.192Z,1.40
2022-10-07T20:49:28.323Z,1.52
2022-10-07T20:51:57.728Z,1.77
2022-10-07T20:54:25.575Z,1.80
2022-10-07T20:56:52.843Z,1.55
2022-10-07T20:59:19.669Z,1.60
2022-10-07T21:01:46.449Z,1.42
2022-10-07T21:04:15.218Z,1.65
2022-10-07T21:06:42.352Z,1.23
2022-10-07T21:09:09.734Z,1.77
2022-10-07T21:11:36.561Z,1.33
2022-10-07T21:14:03.305Z,1.35
2022-10-07T21:16:31.172Z,1.60
2022-10-07T21:18:58.113Z,1.55
2022-10-07T21:21:25.307Z,1.25
2022-10-07T21:23:52.706Z,1.63
2022-10-07T21:26:20.363Z,1.55
2022-10-07T21:28:48.197Z,1.40
2022-10-07T21:31:17.683Z,1.20
2022-10-07T21:33:47.832Z,1.75
2022-10-07T21:36:16.782Z,1.55
2022-10-07T21:38:47.895Z,1.13
2022-10-07T21:41:18.074Z,1.45
2022-10-07T21:43:55.760Z,1.20
2022-10-07T21:46:23.959Z,1.90
2022-10-07T21:48:50.668Z,1.10
2022-10-07T21:51:17.374Z,1.90
2022-10-07T21:53:45.639Z,1.10
2022-10-07T21:56:13.510Z,1.85
2022-10-07T21:58:39.852Z,1.40
2022-10-07T22:01:08.616Z,1.23
2022-10-07T22:03:35.016Z,1.20
2022-10-07T22:06:09.867Z,1.88
2022-10-07T22:08:37.770Z,1.00
2022-10-07T22:11:10.831Z,2.00
2022-10-07T22:13:55.124Z,1.40
2022-10-07T22:16:22.971Z,1.35
2022-10-07T22:18:51.875Z,1.10
2022-10-07T22:21:19.643Z,1.30
2022-10-07T22:23:54.505Z,0.80
2022-10-07T22:26:23.741Z,1.67
2022-10-07T22:28:51.103Z,1.52
2022-10-07T22:31:18.505Z,1.45
2022-10-07T22:33:51.413Z,1.38
2022-10-07T22:36:18.315Z,1.30
2022-10-07T22:38:44.662Z,1.60
2022-10-07T22:41:13.918Z,1.80
2022-10-07T22:43:45.000Z,1.98
2022-10-07T22:46:23.315Z,2.10
2022-10-07T22:48:51.436Z,1.70
2022-10-07T22:51:17.747Z,1.60
2022-10-07T22:53:47.925Z,1.08
2022-10-07T22:56:17.389Z,1.27
2022-10-07T22:58:49.220Z,1.17
2022-10-07T23:01:16.915Z,1.60
2022-10-07T23:03:44.668Z,1.40
2022-10-07T23:06:13.288Z,1.30
2022-10-07T23:08:40.361Z,1.48
2022-10-07T23:11:07.787Z,1.50
2022-10-07T23:13:36.131Z,1.55
2022-10-07T23:16:06.462Z,1.42
2022-10-07T23:18:32.948Z,1.30
2022-10-07T23:21:07.423Z,1.48
2022-10-07T23:23:38.531Z,0.98
2022-10-07T23:26:08.742Z,1.55
2022-10-07T23:28:35.411Z,1.42
2022-10-07T23:31:07.091Z,1.30
2022-10-07T23:33:34.604Z,1.23
2022-10-07T23:36:03.864Z,1.42
2022-10-07T23:38:30.181Z,1.48
2022-10-07T23:40:56.488Z,1.98
2022-10-07T23:43:22.984Z,1.48
2022-10-07T23:45:51.019Z,1.00
2022-10-07T23:48:19.098Z,1.45
2022-10-07T23:50:52.853Z,1.75
2022-10-07T23:53:21.066Z,1.17
2022-10-07T23:55:49.523Z,1.55
2022-10-07T23:58:17.904Z,1.45
